Alderson, West Virginia
Current Conditions -  °F | °C
As of 10:15 PM on Wednesday 22 Oct 2014 (Local Time) from KLWB Reporting Station
Overcast Overcast  
Wind Chill:   Ceiling: 1800
Heat Index:   Visibility: 10mi
Dew Point:   Wind: 12mph
Humidity: 76%   Direction: 350°N
Pressure: 30.15"   Gusts: 18mph
Location:  37.73°N, 80.64°W
Report Text: KLWB 230215Z AUTO 35010G16KT 10SM OVC018 08/04 A3015 RMK AO2 T00780038
Loading
Personal Weather Stations






























Interactive Weather Map
Tropical Storm Tracking
New forecast layout! Learn more

10-Day Weather Forecast

Advertisements
Track Severe Weather on mobile